sensor_id;sensor_type;location;lat;lon;timestamp;P1;durP1;ratioP1;P2;durP2;ratioP2
13197;SDS011;6664;52.514;13.440;2023-05-31T00:01:27;1.43;;;1.33;;
13197;SDS011;6664;52.514;13.440;2023-05-31T00:04:13;1.77;;;1.57;;
13197;SDS011;6664;52.514;13.440;2023-05-31T00:07:01;2.00;;;1.30;;
13197;SDS011;6664;52.514;13.440;2023-05-31T00:09:47;2.80;;;1.80;;
13197;SDS011;6664;52.514;13.440;2023-05-31T00:12:32;3.57;;;1.90;;
13197;SDS011;6664;52.514;13.440;2023-05-31T00:15:18;1.63;;;1.53;;
13197;SDS011;6664;52.514;13.440;2023-05-31T00:18:06;1.53;;;1.23;;
13197;SDS011;6664;52.514;13.440;2023-05-31T00:20:52;2.23;;;1.33;;
13197;SDS011;6664;52.514;13.440;2023-05-31T00:23:38;1.43;;;1.13;;
13197;SDS011;6664;52.514;13.440;2023-05-31T00:26:24;1.40;;;1.30;;
13197;SDS011;6664;52.514;13.440;2023-05-31T00:29:12;2.43;;;1.27;;
13197;SDS011;6664;52.514;13.440;2023-05-31T00:32:00;3.20;;;1.57;;
13197;SDS011;6664;52.514;13.440;2023-05-31T00:34:45;2.10;;;1.47;;
13197;SDS011;6664;52.514;13.440;2023-05-31T00:37:31;2.60;;;1.00;;
13197;SDS011;6664;52.514;13.440;2023-05-31T00:40:22;1.40;;;1.20;;
13197;SDS011;6664;52.514;13.440;2023-05-31T00:43:11;1.30;;;1.20;;
13197;SDS011;6664;52.514;13.440;2023-05-31T00:45:56;2.40;;;1.40;;
13197;SDS011;6664;52.514;13.440;2023-05-31T00:48:43;3.80;;;1.40;;
13197;SDS011;6664;52.514;13.440;2023-05-31T00:51:34;1.30;;;1.20;;
13197;SDS011;6664;52.514;13.440;2023-05-31T00:54:24;1.13;;;1.13;;
13197;SDS011;6664;52.514;13.440;2023-05-31T00:57:10;1.00;;;1.00;;
13197;SDS011;6664;52.514;13.440;2023-05-31T00:59:55;2.93;;;1.30;;
13197;SDS011;6664;52.514;13.440;2023-05-31T01:02:43;3.13;;;1.67;;
13197;SDS011;6664;52.514;13.440;2023-05-31T01:05:29;1.87;;;1.73;;
13197;SDS011;6664;52.514;13.440;2023-05-31T01:08:14;2.30;;;1.20;;
13197;SDS011;6664;52.514;13.440;2023-05-31T01:20:22;2.53;;;1.30;;
13197;SDS011;6664;52.514;13.440;2023-05-31T01:29:17;1.83;;;1.20;;
13197;SDS011;6664;52.514;13.440;2023-05-31T01:32:04;2.40;;;1.40;;
13197;SDS011;6664;52.514;13.440;2023-05-31T01:34:53;6.30;;;1.30;;
13197;SDS011;6664;52.514;13.440;2023-05-31T01:37:38;1.47;;;1.37;;
13197;SDS011;6664;52.514;13.440;2023-05-31T01:40:24;1.73;;;1.30;;
13197;SDS011;6664;52.514;13.440;2023-05-31T01:43:10;1.73;;;1.40;;
13197;SDS011;6664;52.514;13.440;2023-05-31T01:45:57;3.73;;;1.40;;
13197;SDS011;6664;52.514;13.440;2023-05-31T02:25:17;3.57;;;1.53;;
13197;SDS011;6664;52.514;13.440;2023-05-31T02:28:03;1.60;;;1.50;;
13197;SDS011;6664;52.514;13.440;2023-05-31T02:30:55;4.20;;;1.40;;
13197;SDS011;6664;52.514;13.440;2023-05-31T02:33:42;2.27;;;1.53;;
13197;SDS011;6664;52.514;13.440;2023-05-31T02:36:28;1.60;;;1.50;;
13197;SDS011;6664;52.514;13.440;2023-05-31T02:39:17;1.60;;;1.30;;
13197;SDS011;6664;52.514;13.440;2023-05-31T02:42:03;1.60;;;1.47;;
13197;SDS011;6664;52.514;13.440;2023-05-31T02:44:50;1.90;;;1.47;;
13197;SDS011;6664;52.514;13.440;2023-05-31T02:47:36;1.43;;;1.30;;
13197;SDS011;6664;52.514;13.440;2023-05-31T02:50:23;2.50;;;1.33;;
13197;SDS011;6664;52.514;13.440;2023-05-31T02:53:09;2.17;;;1.47;;
13197;SDS011;6664;52.514;13.440;2023-05-31T02:55:55;1.50;;;1.40;;
13197;SDS011;6664;52.514;13.440;2023-05-31T02:58:42;1.47;;;1.37;;
13197;SDS011;6664;52.514;13.440;2023-05-31T03:01:28;1.87;;;1.30;;
13197;SDS011;6664;52.514;13.440;2023-05-31T03:04:14;1.30;;;1.20;;
13197;SDS011;6664;52.514;13.440;2023-05-31T03:07:02;3.37;;;1.70;;
13197;SDS011;6664;52.514;13.440;2023-05-31T03:09:48;3.33;;;1.43;;
13197;SDS011;6664;52.514;13.440;2023-05-31T03:12:34;8.27;;;1.70;;
13197;SDS011;6664;52.514;13.440;2023-05-31T03:15:20;1.57;;;1.47;;
13197;SDS011;6664;52.514;13.440;2023-05-31T03:18:06;5.80;;;1.50;;
13197;SDS011;6664;52.514;13.440;2023-05-31T03:20:52;2.70;;;1.30;;
13197;SDS011;6664;52.514;13.440;2023-05-31T03:23:38;3.60;;;1.47;;
13197;SDS011;6664;52.514;13.440;2023-05-31T03:26:26;2.90;;;1.63;;
13197;SDS011;6664;52.514;13.440;2023-05-31T03:29:12;4.67;;;2.30;;
13197;SDS011;6664;52.514;13.440;2023-05-31T03:31:57;2.63;;;1.80;;
13197;SDS011;6664;52.514;13.440;2023-05-31T03:34:43;2.00;;;1.87;;
13197;SDS011;6664;52.514;13.440;2023-05-31T03:37:29;2.20;;;1.73;;
13197;SDS011;6664;52.514;13.440;2023-05-31T03:40:15;4.43;;;1.63;;
13197;SDS011;6664;52.514;13.440;2023-05-31T03:43:00;9.40;;;1.87;;
13197;SDS011;6664;52.514;13.440;2023-05-31T03:45:46;5.17;;;1.50;;
13197;SDS011;6664;52.514;13.440;2023-05-31T03:48:32;2.70;;;2.10;;
13197;SDS011;6664;52.514;13.440;2023-05-31T03:51:20;3.00;;;1.67;;
13197;SDS011;6664;52.514;13.440;2023-05-31T03:54:05;2.00;;;1.70;;
13197;SDS011;6664;52.514;13.440;2023-05-31T03:56:51;2.50;;;1.67;;
13197;SDS011;6664;52.514;13.440;2023-05-31T03:59:39;2.90;;;1.70;;
13197;SDS011;6664;52.514;13.440;2023-05-31T04:02:25;2.93;;;1.70;;
13197;SDS011;6664;52.514;13.440;2023-05-31T04:05:10;9.43;;;2.27;;
13197;SDS011;6664;52.514;13.440;2023-05-31T04:07:56;3.90;;;1.47;;
13197;SDS011;6664;52.514;13.440;2023-05-31T04:10:42;2.17;;;1.20;;
13197;SDS011;6664;52.514;13.440;2023-05-31T04:13:28;5.27;;;1.97;;
13197;SDS011;6664;52.514;13.440;2023-05-31T04:16:13;2.30;;;2.10;;
13197;SDS011;6664;52.514;13.440;2023-05-31T04:18:59;3.13;;;1.83;;
13197;SDS011;6664;52.514;13.440;2023-05-31T04:21:45;2.57;;;1.60;;
13197;SDS011;6664;52.514;13.440;2023-05-31T04:24:30;10.60;;;1.73;;
13197;SDS011;6664;52.514;13.440;2023-05-31T04:27:16;1.90;;;1.67;;
13197;SDS011;6664;52.514;13.440;2023-05-31T04:30:06;2.60;;;1.70;;
13197;SDS011;6664;52.514;13.440;2023-05-31T04:32:54;3.53;;;1.93;;
13197;SDS011;6664;52.514;13.440;2023-05-31T04:35:45;1.93;;;1.80;;
13197;SDS011;6664;52.514;13.440;2023-05-31T04:38:31;8.53;;;1.80;;
13197;SDS011;6664;52.514;13.440;2023-05-31T04:41:17;3.47;;;1.47;;
13197;SDS011;6664;52.514;13.440;2023-05-31T04:44:03;2.13;;;1.67;;
13197;SDS011;6664;52.514;13.440;2023-05-31T04:46:49;3.13;;;1.60;;
13197;SDS011;6664;52.514;13.440;2023-05-31T04:49:35;1.80;;;1.57;;
13197;SDS011;6664;52.514;13.440;2023-05-31T04:52:38;6.87;;;1.93;;
13197;SDS011;6664;52.514;13.440;2023-05-31T04:55:25;3.60;;;1.60;;
13197;SDS011;6664;52.514;13.440;2023-05-31T04:58:13;2.30;;;1.50;;
13197;SDS011;6664;52.514;13.440;2023-05-31T05:00:59;1.87;;;1.60;;
13197;SDS011;6664;52.514;13.440;2023-05-31T05:03:45;1.40;;;1.30;;
13197;SDS011;6664;52.514;13.440;2023-05-31T05:06:31;3.37;;;1.60;;
13197;SDS011;6664;52.514;13.440;2023-05-31T05:09:22;4.00;;;1.80;;
13197;SDS011;6664;52.514;13.440;2023-05-31T05:12:10;1.80;;;1.60;;
13197;SDS011;6664;52.514;13.440;2023-05-31T05:14:58;5.50;;;2.00;;
13197;SDS011;6664;52.514;13.440;2023-05-31T05:17:44;2.60;;;1.63;;
13197;SDS011;6664;52.514;13.440;2023-05-31T05:20:31;5.70;;;2.20;;
13197;SDS011;6664;52.514;13.440;2023-05-31T05:23:16;2.00;;;1.30;;
13197;SDS011;6664;52.514;13.440;2023-05-31T05:26:04;2.97;;;1.40;;
13197;SDS011;6664;52.514;13.440;2023-05-31T05:28:50;1.40;;;1.30;;
13197;SDS011;6664;52.514;13.440;2023-05-31T05:31:38;3.37;;;1.87;;
13197;SDS011;6664;52.514;13.440;2023-05-31T05:34:24;4.00;;;1.77;;
13197;SDS011;6664;52.514;13.440;2023-05-31T05:37:10;2.43;;;1.53;;
13197;SDS011;6664;52.514;13.440;2023-05-31T05:40:00;3.87;;;1.43;;
13197;SDS011;6664;52.514;13.440;2023-05-31T05:42:47;5.13;;;2.00;;
13197;SDS011;6664;52.514;13.440;2023-05-31T05:45:35;7.27;;;2.40;;
13197;SDS011;6664;52.514;13.440;2023-05-31T05:48:21;3.53;;;1.90;;
13197;SDS011;6664;52.514;13.440;2023-05-31T05:51:09;4.20;;;1.90;;
13197;SDS011;6664;52.514;13.440;2023-05-31T05:53:55;6.40;;;2.30;;
13197;SDS011;6664;52.514;13.440;2023-05-31T05:56:41;3.87;;;1.90;;
13197;SDS011;6664;52.514;13.440;2023-05-31T05:59:29;3.30;;;1.70;;
13197;SDS011;6664;52.514;13.440;2023-05-31T06:02:15;2.23;;;1.83;;
13197;SDS011;6664;52.514;13.440;2023-05-31T06:05:00;1.57;;;1.47;;
13197;SDS011;6664;52.514;13.440;2023-05-31T06:07:46;2.93;;;1.47;;
13197;SDS011;6664;52.514;13.440;2023-05-31T06:10:32;4.93;;;1.63;;
13197;SDS011;6664;52.514;13.440;2023-05-31T06:13:18;1.63;;;1.53;;
13197;SDS011;6664;52.514;13.440;2023-05-31T06:16:04;2.63;;;1.80;;
13197;SDS011;6664;52.514;13.440;2023-05-31T06:18:52;4.20;;;1.87;;
13197;SDS011;6664;52.514;13.440;2023-05-31T06:21:38;3.60;;;1.60;;
13197;SDS011;6664;52.514;13.440;2023-05-31T06:24:24;1.87;;;1.37;;
13197;SDS011;6664;52.514;13.440;2023-05-31T06:27:11;3.20;;;1.80;;
13197;SDS011;6664;52.514;13.440;2023-05-31T06:30:00;6.37;;;1.80;;
13197;SDS011;6664;52.514;13.440;2023-05-31T06:32:48;4.63;;;1.40;;
13197;SDS011;6664;52.514;13.440;2023-05-31T06:35:34;5.43;;;1.60;;
13197;SDS011;6664;52.514;13.440;2023-05-31T06:38:20;7.17;;;1.50;;
13197;SDS011;6664;52.514;13.440;2023-05-31T06:41:06;1.97;;;1.67;;
13197;SDS011;6664;52.514;13.440;2023-05-31T06:43:52;2.97;;;1.90;;
13197;SDS011;6664;52.514;13.440;2023-05-31T06:46:38;2.70;;;1.70;;
13197;SDS011;6664;52.514;13.440;2023-05-31T06:49:25;8.80;;;2.37;;
13197;SDS011;6664;52.514;13.440;2023-05-31T06:52:12;3.33;;;2.03;;
13197;SDS011;6664;52.514;13.440;2023-05-31T06:54:58;1.70;;;1.60;;
13197;SDS011;6664;52.514;13.440;2023-05-31T06:57:43;5.63;;;1.77;;
13197;SDS011;6664;52.514;13.440;2023-05-31T07:00:29;3.57;;;1.73;;
13197;SDS011;6664;52.514;13.440;2023-05-31T07:03:19;2.53;;;1.63;;
13197;SDS011;6664;52.514;13.440;2023-05-31T07:06:05;3.30;;;2.00;;
13197;SDS011;6664;52.514;13.440;2023-05-31T07:08:51;3.80;;;1.37;;
13197;SDS011;6664;52.514;13.440;2023-05-31T07:11:38;1.50;;;1.40;;
13197;SDS011;6664;52.514;13.440;2023-05-31T07:14:31;6.73;;;1.70;;
13197;SDS011;6664;52.514;13.440;2023-05-31T07:17:19;5.17;;;1.97;;
13197;SDS011;6664;52.514;13.440;2023-05-31T07:20:04;2.03;;;1.50;;
13197;SDS011;6664;52.514;13.440;2023-05-31T07:22:52;3.70;;;2.00;;
13197;SDS011;6664;52.514;13.440;2023-05-31T07:25:37;2.53;;;1.80;;
13197;SDS011;6664;52.514;13.440;2023-05-31T07:28:23;4.20;;;2.23;;
13197;SDS011;6664;52.514;13.440;2023-05-31T07:31:09;3.43;;;1.90;;
13197;SDS011;6664;52.514;13.440;2023-05-31T07:33:55;7.50;;;2.30;;
13197;SDS011;6664;52.514;13.440;2023-05-31T07:36:41;7.33;;;1.77;;
13197;SDS011;6664;52.514;13.440;2023-05-31T07:39:28;9.47;;;2.10;;
13197;SDS011;6664;52.514;13.440;2023-05-31T07:42:16;10.37;;;2.67;;
13197;SDS011;6664;52.514;13.440;2023-05-31T07:45:06;5.73;;;2.10;;
13197;SDS011;6664;52.514;13.440;2023-05-31T07:47:53;3.00;;;1.70;;
13197;SDS011;6664;52.514;13.440;2023-05-31T07:50:41;8.90;;;2.10;;
13197;SDS011;6664;52.514;13.440;2023-05-31T07:53:26;1.90;;;1.63;;
13197;SDS011;6664;52.514;13.440;2023-05-31T07:56:14;4.43;;;2.00;;
13197;SDS011;6664;52.514;13.440;2023-05-31T07:59:00;3.93;;;1.33;;
13197;SDS011;6664;52.514;13.440;2023-05-31T08:01:48;7.83;;;1.20;;
13197;SDS011;6664;52.514;13.440;2023-05-31T08:04:35;7.33;;;1.63;;
13197;SDS011;6664;52.514;13.440;2023-05-31T08:07:20;4.90;;;1.93;;
13197;SDS011;6664;52.514;13.440;2023-05-31T08:10:08;4.20;;;1.87;;
13197;SDS011;6664;52.514;13.440;2023-05-31T08:12:59;5.60;;;1.33;;
13197;SDS011;6664;52.514;13.440;2023-05-31T08:15:44;5.17;;;1.70;;
13197;SDS011;6664;52.514;13.440;2023-05-31T08:18:29;4.40;;;2.17;;
13197;SDS011;6664;52.514;13.440;2023-05-31T08:21:15;4.50;;;1.40;;
13197;SDS011;6664;52.514;13.440;2023-05-31T08:24:02;6.53;;;1.50;;
13197;SDS011;6664;52.514;13.440;2023-05-31T08:26:51;5.60;;;1.50;;
13197;SDS011;6664;52.514;13.440;2023-05-31T08:29:36;6.47;;;1.90;;
13197;SDS011;6664;52.514;13.440;2023-05-31T08:32:25;2.43;;;1.33;;
13197;SDS011;6664;52.514;13.440;2023-05-31T08:35:10;3.13;;;1.40;;
13197;SDS011;6664;52.514;13.440;2023-05-31T08:37:57;2.70;;;1.37;;
13197;SDS011;6664;52.514;13.440;2023-05-31T08:40:45;4.23;;;1.37;;
13197;SDS011;6664;52.514;13.440;2023-05-31T08:43:31;4.53;;;1.40;;
13197;SDS011;6664;52.514;13.440;2023-05-31T08:46:17;1.37;;;1.27;;
13197;SDS011;6664;52.514;13.440;2023-05-31T08:49:11;5.13;;;1.10;;
13197;SDS011;6664;52.514;13.440;2023-05-31T08:52:01;1.17;;;1.07;;
13197;SDS011;6664;52.514;13.440;2023-05-31T08:54:47;11.37;;;1.77;;
13197;SDS011;6664;52.514;13.440;2023-05-31T08:57:34;2.97;;;1.20;;
13197;SDS011;6664;52.514;13.440;2023-05-31T09:00:21;1.20;;;1.07;;
13197;SDS011;6664;52.514;13.440;2023-05-31T09:03:08;1.30;;;1.20;;
13197;SDS011;6664;52.514;13.440;2023-05-31T09:05:55;1.03;;;0.93;;
13197;SDS011;6664;52.514;13.440;2023-05-31T09:08:41;1.27;;;1.17;;
13197;SDS011;6664;52.514;13.440;2023-05-31T09:11:27;1.63;;;1.20;;
13197;SDS011;6664;52.514;13.440;2023-05-31T09:14:13;3.13;;;1.00;;
13197;SDS011;6664;52.514;13.440;2023-05-31T09:16:59;3.00;;;1.30;;
13197;SDS011;6664;52.514;13.440;2023-05-31T09:19:51;2.47;;;1.40;;
13197;SDS011;6664;52.514;13.440;2023-05-31T09:22:38;2.17;;;1.40;;
13197;SDS011;6664;52.514;13.440;2023-05-31T09:25:24;3.40;;;1.37;;
13197;SDS011;6664;52.514;13.440;2023-05-31T09:28:10;5.33;;;1.00;;
13197;SDS011;6664;52.514;13.440;2023-05-31T09:31:00;1.27;;;0.93;;
13197;SDS011;6664;52.514;13.440;2023-05-31T09:33:55;26.63;;;2.03;;
13197;SDS011;6664;52.514;13.440;2023-05-31T09:36:42;2.33;;;1.70;;
13197;SDS011;6664;52.514;13.440;2023-05-31T09:39:34;2.80;;;1.30;;
13197;SDS011;6664;52.514;13.440;2023-05-31T09:42:20;5.57;;;1.20;;
13197;SDS011;6664;52.514;13.440;2023-05-31T09:45:08;1.70;;;1.07;;
13197;SDS011;6664;52.514;13.440;2023-05-31T09:47:55;1.97;;;1.47;;
13197;SDS011;6664;52.514;13.440;2023-05-31T09:50:43;1.73;;;1.20;;
13197;SDS011;6664;52.514;13.440;2023-05-31T09:53:33;1.97;;;1.20;;
13197;SDS011;6664;52.514;13.440;2023-05-31T09:56:26;1.83;;;1.00;;
13197;SDS011;6664;52.514;13.440;2023-05-31T09:59:14;1.93;;;1.37;;
13197;SDS011;6664;52.514;13.440;2023-05-31T10:02:00;1.03;;;1.03;;
13197;SDS011;6664;52.514;13.440;2023-05-31T10:04:47;3.70;;;1.47;;
13197;SDS011;6664;52.514;13.440;2023-05-31T10:07:33;3.90;;;0.87;;
13197;SDS011;6664;52.514;13.440;2023-05-31T10:10:19;4.40;;;1.07;;
13197;SDS011;6664;52.514;13.440;2023-05-31T10:13:05;2.33;;;1.10;;
13197;SDS011;6664;52.514;13.440;2023-05-31T10:15:56;1.20;;;1.10;;
13197;SDS011;6664;52.514;13.440;2023-05-31T10:18:44;3.20;;;1.20;;
13197;SDS011;6664;52.514;13.440;2023-05-31T10:21:30;3.17;;;1.30;;
13197;SDS011;6664;52.514;13.440;2023-05-31T10:24:18;3.60;;;1.50;;
13197;SDS011;6664;52.514;13.440;2023-05-31T10:27:22;1.40;;;1.33;;
13197;SDS011;6664;52.514;13.440;2023-05-31T10:30:14;3.80;;;1.30;;
13197;SDS011;6664;52.514;13.440;2023-05-31T10:33:13;1.47;;;1.23;;
13197;SDS011;6664;52.514;13.440;2023-05-31T10:36:00;1.80;;;1.50;;
13197;SDS011;6664;52.514;13.440;2023-05-31T10:38:48;6.23;;;1.63;;
13197;SDS011;6664;52.514;13.440;2023-05-31T10:41:42;3.27;;;1.37;;
13197;SDS011;6664;52.514;13.440;2023-05-31T10:44:33;0.97;;;0.90;;
13197;SDS011;6664;52.514;13.440;2023-05-31T10:47:26;1.17;;;1.10;;
13197;SDS011;6664;52.514;13.440;2023-05-31T10:50:21;1.30;;;1.20;;
13197;SDS011;6664;52.514;13.440;2023-05-31T10:53:11;1.67;;;1.27;;
13197;SDS011;6664;52.514;13.440;2023-05-31T10:56:04;1.00;;;0.90;;
13197;SDS011;6664;52.514;13.440;2023-05-31T10:58:55;3.23;;;1.30;;
13197;SDS011;6664;52.514;13.440;2023-05-31T11:01:40;2.07;;;0.87;;
13197;SDS011;6664;52.514;13.440;2023-05-31T11:04:26;1.07;;;1.07;;
13197;SDS011;6664;52.514;13.440;2023-05-31T11:10:07;2.17;;;1.20;;
13197;SDS011;6664;52.514;13.440;2023-05-31T11:13:03;1.20;;;1.10;;
13197;SDS011;6664;52.514;13.440;2023-05-31T11:15:50;1.60;;;1.30;;
13197;SDS011;6664;52.514;13.440;2023-05-31T11:18:40;1.27;;;1.17;;
13197;SDS011;6664;52.514;13.440;2023-05-31T11:24:47;1.83;;;1.00;;
13197;SDS011;6664;52.514;13.440;2023-05-31T11:27:42;2.53;;;1.10;;
13197;SDS011;6664;52.514;13.440;2023-05-31T11:30:36;2.83;;;0.70;;
13197;SDS011;6664;52.514;13.440;2023-05-31T11:33:23;1.47;;;0.80;;
13197;SDS011;6664;52.514;13.440;2023-05-31T11:36:43;1.57;;;1.10;;
13197;SDS011;6664;52.514;13.440;2023-05-31T11:39:31;1.23;;;0.97;;
13197;SDS011;6664;52.514;13.440;2023-05-31T11:42:16;1.00;;;0.87;;
13197;SDS011;6664;52.514;13.440;2023-05-31T11:45:06;0.80;;;0.80;;
13197;SDS011;6664;52.514;13.440;2023-05-31T11:47:55;0.90;;;0.90;;
13197;SDS011;6664;52.514;13.440;2023-05-31T11:51:02;0.80;;;0.80;;
13197;SDS011;6664;52.514;13.440;2023-05-31T11:53:48;1.13;;;0.90;;
13197;SDS011;6664;52.514;13.440;2023-05-31T11:56:42;0.70;;;0.70;;
13197;SDS011;6664;52.514;13.440;2023-05-31T11:59:30;0.93;;;0.90;;
13197;SDS011;6664;52.514;13.440;2023-05-31T12:02:19;1.27;;;0.90;;
13197;SDS011;6664;52.514;13.440;2023-05-31T12:05:04;0.80;;;0.80;;
13197;SDS011;6664;52.514;13.440;2023-05-31T12:07:54;0.70;;;0.70;;
13197;SDS011;6664;52.514;13.440;2023-05-31T12:10:41;2.20;;;0.87;;
13197;SDS011;6664;52.514;13.440;2023-05-31T12:13:27;1.33;;;1.20;;
13197;SDS011;6664;52.514;13.440;2023-05-31T12:16:15;0.90;;;0.90;;
13197;SDS011;6664;52.514;13.440;2023-05-31T12:19:03;0.97;;;0.90;;
13197;SDS011;6664;52.514;13.440;2023-05-31T12:21:56;0.90;;;0.80;;
13197;SDS011;6664;52.514;13.440;2023-05-31T12:24:48;1.30;;;1.10;;
13197;SDS011;6664;52.514;13.440;2023-05-31T12:27:37;1.33;;;0.93;;
13197;SDS011;6664;52.514;13.440;2023-05-31T12:30:32;0.90;;;0.90;;
13197;SDS011;6664;52.514;13.440;2023-05-31T12:33:34;1.00;;;0.87;;
13197;SDS011;6664;52.514;13.440;2023-05-31T12:36:19;1.23;;;0.80;;
13197;SDS011;6664;52.514;13.440;2023-05-31T12:41:57;1.30;;;0.80;;
13197;SDS011;6664;52.514;13.440;2023-05-31T12:44:43;1.17;;;0.80;;
13197;SDS011;6664;52.514;13.440;2023-05-31T12:47:36;0.70;;;0.63;;
13197;SDS011;6664;52.514;13.440;2023-05-31T12:50:22;1.88;;;0.70;;
13197;SDS011;6664;52.514;13.440;2023-05-31T12:53:08;0.50;;;0.50;;
13197;SDS011;6664;52.514;13.440;2023-05-31T12:55:53;1.10;;;0.55;;
13197;SDS011;6664;52.514;13.440;2023-05-31T12:58:39;0.70;;;0.70;;
13197;SDS011;6664;52.514;13.440;2023-05-31T13:01:27;1.10;;;0.80;;
13197;SDS011;6664;52.514;13.440;2023-05-31T13:04:13;0.98;;;0.65;;
13197;SDS011;6664;52.514;13.440;2023-05-31T13:07:02;2.70;;;0.60;;
13197;SDS011;6664;52.514;13.440;2023-05-31T13:09:47;1.17;;;1.00;;
13197;SDS011;6664;52.514;13.440;2023-05-31T13:12:34;0.60;;;0.60;;
13197;SDS011;6664;52.514;13.440;2023-05-31T13:15:20;1.42;;;0.60;;
13197;SDS011;6664;52.514;13.440;2023-05-31T13:18:07;1.20;;;0.70;;
13197;SDS011;6664;52.514;13.440;2023-05-31T13:20:55;0.52;;;0.52;;
13197;SDS011;6664;52.514;13.440;2023-05-31T13:23:43;0.50;;;0.50;;
13197;SDS011;6664;52.514;13.440;2023-05-31T13:26:31;0.60;;;0.60;;
13197;SDS011;6664;52.514;13.440;2023-05-31T13:29:18;0.60;;;0.60;;
13197;SDS011;6664;52.514;13.440;2023-05-31T13:32:06;1.40;;;0.88;;
13197;SDS011;6664;52.514;13.440;2023-05-31T13:34:54;0.60;;;0.60;;
13197;SDS011;6664;52.514;13.440;2023-05-31T13:37:44;0.60;;;0.60;;
13197;SDS011;6664;52.514;13.440;2023-05-31T13:40:30;0.50;;;0.50;;
13197;SDS011;6664;52.514;13.440;2023-05-31T13:43:18;1.08;;;0.60;;
13197;SDS011;6664;52.514;13.440;2023-05-31T13:46:07;2.20;;;0.75;;
13197;SDS011;6664;52.514;13.440;2023-05-31T13:48:56;0.70;;;0.70;;
13197;SDS011;6664;52.514;13.440;2023-05-31T13:51:42;0.70;;;0.70;;
13197;SDS011;6664;52.514;13.440;2023-05-31T13:54:29;0.52;;;0.52;;
13197;SDS011;6664;52.514;13.440;2023-05-31T13:57:18;0.60;;;0.60;;
13197;SDS011;6664;52.514;13.440;2023-05-31T14:02:57;0.60;;;0.60;;
13197;SDS011;6664;52.514;13.440;2023-05-31T14:05:44;0.70;;;0.70;;
13197;SDS011;6664;52.514;13.440;2023-05-31T14:08:34;0.60;;;0.60;;
13197;SDS011;6664;52.514;13.440;2023-05-31T14:11:21;0.55;;;0.55;;
13197;SDS011;6664;52.514;13.440;2023-05-31T14:14:07;0.63;;;0.63;;
13197;SDS011;6664;52.514;13.440;2023-05-31T14:16:53;0.60;;;0.60;;
13197;SDS011;6664;52.514;13.440;2023-05-31T14:19:39;0.60;;;0.60;;
13197;SDS011;6664;52.514;13.440;2023-05-31T14:22:27;0.70;;;0.70;;
13197;SDS011;6664;52.514;13.440;2023-05-31T14:25:13;0.63;;;0.60;;
13197;SDS011;6664;52.514;13.440;2023-05-31T14:28:02;0.70;;;0.70;;
13197;SDS011;6664;52.514;13.440;2023-05-31T14:30:48;0.60;;;0.60;;
13197;SDS011;6664;52.514;13.440;2023-05-31T14:33:33;0.98;;;0.98;;
13197;SDS011;6664;52.514;13.440;2023-05-31T14:36:26;0.60;;;0.60;;
13197;SDS011;6664;52.514;13.440;2023-05-31T14:39:13;0.80;;;0.80;;
13197;SDS011;6664;52.514;13.440;2023-05-31T14:41:58;0.60;;;0.60;;
13197;SDS011;6664;52.514;13.440;2023-05-31T14:44:44;0.77;;;0.77;;
13197;SDS011;6664;52.514;13.440;2023-05-31T14:47:30;0.80;;;0.80;;
13197;SDS011;6664;52.514;13.440;2023-05-31T14:50:21;0.88;;;0.88;;
13197;SDS011;6664;52.514;13.440;2023-05-31T14:53:09;0.70;;;0.70;;
13197;SDS011;6664;52.514;13.440;2023-05-31T14:55:59;0.93;;;0.93;;
13197;SDS011;6664;52.514;13.440;2023-05-31T14:58:48;2.88;;;1.10;;
13197;SDS011;6664;52.514;13.440;2023-05-31T15:01:34;1.00;;;1.00;;
13197;SDS011;6664;52.514;13.440;2023-05-31T15:04:20;4.13;;;0.90;;
13197;SDS011;6664;52.514;13.440;2023-05-31T15:07:09;0.95;;;0.80;;
13197;SDS011;6664;52.514;13.440;2023-05-31T15:09:56;0.80;;;0.80;;
13197;SDS011;6664;52.514;13.440;2023-05-31T15:12:41;0.80;;;0.80;;
13197;SDS011;6664;52.514;13.440;2023-05-31T15:15:32;1.37;;;0.87;;
13197;SDS011;6664;52.514;13.440;2023-05-31T15:18:18;0.90;;;0.90;;
13197;SDS011;6664;52.514;13.440;2023-05-31T15:21:04;0.90;;;0.90;;
13197;SDS011;6664;52.514;13.440;2023-05-31T15:23:51;0.77;;;0.77;;
13197;SDS011;6664;52.514;13.440;2023-05-31T15:26:37;1.40;;;1.30;;
13197;SDS011;6664;52.514;13.440;2023-05-31T15:29:22;0.80;;;0.80;;
13197;SDS011;6664;52.514;13.440;2023-05-31T15:32:08;2.70;;;1.00;;
13197;SDS011;6664;52.514;13.440;2023-05-31T15:34:54;2.27;;;1.00;;
13197;SDS011;6664;52.514;13.440;2023-05-31T15:37:40;0.90;;;0.90;;
13197;SDS011;6664;52.514;13.440;2023-05-31T15:40:26;1.20;;;1.10;;
13197;SDS011;6664;52.514;13.440;2023-05-31T15:43:12;2.00;;;1.63;;
13197;SDS011;6664;52.514;13.440;2023-05-31T15:46:03;1.20;;;1.10;;
13197;SDS011;6664;52.514;13.440;2023-05-31T15:48:50;0.87;;;0.87;;
13197;SDS011;6664;52.514;13.440;2023-05-31T15:51:36;1.70;;;1.07;;
13197;SDS011;6664;52.514;13.440;2023-05-31T15:54:23;3.50;;;0.87;;
13197;SDS011;6664;52.514;13.440;2023-05-31T15:57:08;3.40;;;0.90;;
13197;SDS011;6664;52.514;13.440;2023-05-31T15:59:57;0.80;;;0.80;;
13197;SDS011;6664;52.514;13.440;2023-05-31T16:02:43;1.93;;;1.50;;
13197;SDS011;6664;52.514;13.440;2023-05-31T16:05:29;1.23;;;1.00;;
13197;SDS011;6664;52.514;13.440;2023-05-31T16:08:15;1.10;;;1.10;;
13197;SDS011;6664;52.514;13.440;2023-05-31T16:11:03;1.60;;;1.50;;
13197;SDS011;6664;52.514;13.440;2023-05-31T16:13:50;1.00;;;1.00;;
13197;SDS011;6664;52.514;13.440;2023-05-31T16:16:38;1.23;;;1.00;;
13197;SDS011;6664;52.514;13.440;2023-05-31T16:19:25;4.33;;;1.80;;
13197;SDS011;6664;52.514;13.440;2023-05-31T16:22:13;1.77;;;1.23;;
13197;SDS011;6664;52.514;13.440;2023-05-31T16:24:59;6.63;;;1.40;;
13197;SDS011;6664;52.514;13.440;2023-05-31T16:27:45;1.00;;;1.00;;
13197;SDS011;6664;52.514;13.440;2023-05-31T16:30:31;1.27;;;1.13;;
13197;SDS011;6664;52.514;13.440;2023-05-31T16:33:17;2.50;;;1.13;;
13197;SDS011;6664;52.514;13.440;2023-05-31T16:36:03;2.10;;;1.10;;
13197;SDS011;6664;52.514;13.440;2023-05-31T16:38:49;1.17;;;1.10;;
13197;SDS011;6664;52.514;13.440;2023-05-31T16:41:34;1.30;;;1.20;;
13197;SDS011;6664;52.514;13.440;2023-05-31T16:44:20;1.00;;;0.90;;
13197;SDS011;6664;52.514;13.440;2023-05-31T16:47:05;3.20;;;1.00;;
13197;SDS011;6664;52.514;13.440;2023-05-31T16:49:54;1.00;;;0.90;;
13197;SDS011;6664;52.514;13.440;2023-05-31T16:52:40;0.90;;;0.90;;
13197;SDS011;6664;52.514;13.440;2023-05-31T16:55:26;1.20;;;1.10;;
13197;SDS011;6664;52.514;13.440;2023-05-31T16:58:11;1.27;;;1.17;;
13197;SDS011;6664;52.514;13.440;2023-05-31T17:01:00;2.03;;;1.00;;
13197;SDS011;6664;52.514;13.440;2023-05-31T17:03:45;3.03;;;1.20;;
13197;SDS011;6664;52.514;13.440;2023-05-31T17:06:33;1.27;;;1.17;;
13197;SDS011;6664;52.514;13.440;2023-05-31T17:09:19;1.20;;;1.10;;
13197;SDS011;6664;52.514;13.440;2023-05-31T17:12:06;1.50;;;1.40;;
13197;SDS011;6664;52.514;13.440;2023-05-31T17:14:53;1.03;;;0.97;;
13197;SDS011;6664;52.514;13.440;2023-05-31T17:17:39;1.00;;;1.00;;
13197;SDS011;6664;52.514;13.440;2023-05-31T17:20:26;4.00;;;1.10;;
13197;SDS011;6664;52.514;13.440;2023-05-31T17:23:14;0.93;;;0.83;;
13197;SDS011;6664;52.514;13.440;2023-05-31T17:26:00;1.00;;;1.00;;
13197;SDS011;6664;52.514;13.440;2023-05-31T17:28:47;2.50;;;1.20;;
13197;SDS011;6664;52.514;13.440;2023-05-31T17:31:37;1.90;;;1.30;;
13197;SDS011;6664;52.514;13.440;2023-05-31T17:34:24;1.90;;;1.13;;
13197;SDS011;6664;52.514;13.440;2023-05-31T17:37:11;2.93;;;1.10;;
13197;SDS011;6664;52.514;13.440;2023-05-31T17:39:56;0.87;;;0.87;;
13197;SDS011;6664;52.514;13.440;2023-05-31T17:42:42;1.47;;;1.10;;
13197;SDS011;6664;52.514;13.440;2023-05-31T17:45:31;1.53;;;1.00;;
13197;SDS011;6664;52.514;13.440;2023-05-31T17:48:16;0.90;;;0.87;;
13197;SDS011;6664;52.514;13.440;2023-05-31T17:51:02;1.13;;;1.03;;
13197;SDS011;6664;52.514;13.440;2023-05-31T17:53:47;2.30;;;1.40;;